Time;durP1;ratioP1;P1;durP2;ratioP2;P2;SDS_P1;SDS_P2;PMS_P1;PMS_P2;Temp;Humidity;BMP_temperature;BMP_pressure;BME280_temperature;BME280_humidity;BME280_pressure;Samples;Min_cycle;Max_cycle;Signal;HPM_P1;HPM_P2
2022/04/10 00:01:53;;;;;;;6.40;2.00;;;;;;;0.26;87.25;98837.13;103564;1300;24237;-30
2022/04/10 00:04:19;;;;;;;9.70;3.60;;;;;;;0.17;87.34;98837.77;103629;1300;24256;-28
2022/04/10 00:06:44;;;;;;;12.70;4.80;;;;;;;0.07;87.25;98840.47;103581;1300;24190;-27
2022/04/10 00:09:13;;;;;;;17.70;7.90;;;;;;;-0.04;87.39;98844.81;103605;1300;24221;-25
2022/04/10 00:11:40;;;;;;;7.10;3.00;;;;;;;-0.13;87.46;98851.13;103594;1300;24240;-26
2022/04/10 00:14:05;;;;;;;4.40;2.20;;;;;;;-0.14;87.90;98849.65;103580;1300;24292;-28
2022/04/10 00:16:31;;;;;;;4.60;2.10;;;;;;;-0.15;87.98;98850.77;103611;1300;24274;-28
2022/04/10 00:19:01;;;;;;;4.60;2.20;;;;;;;-0.18;88.33;98853.52;103597;1300;24231;-27
2022/04/10 00:21:27;;;;;;;3.50;2.40;;;;;;;-0.17;88.19;98854.80;103519;1300;24229;-28
2022/04/10 00:23:53;;;;;;;5.90;1.70;;;;;;;-0.08;88.44;98856.42;103570;1300;24316;-25
2022/04/10 00:26:19;;;;;;;4.10;2.20;;;;;;;-0.06;88.70;98858.06;103533;1300;24352;-28
2022/04/10 00:28:45;;;;;;;3.80;2.10;;;;;;;-0.09;88.46;98865.56;103590;1300;22885;-29
2022/04/10 00:31:11;;;;;;;5.10;2.40;;;;;;;-0.15;88.32;98872.14;103535;1300;24249;-27
2022/04/10 00:33:36;;;;;;;4.10;2.20;;;;;;;-0.17;88.47;98868.74;103466;1300;24311;-29
2022/04/10 00:36:03;;;;;;;4.70;2.60;;;;;;;-0.21;88.74;98867.94;103596;1298;24308;-26
2022/04/10 00:38:28;;;;;;;3.10;1.80;;;;;;;-0.30;88.89;98870.09;103536;1300;22944;-26
2022/04/10 00:40:54;;;;;;;4.20;1.70;;;;;;;-0.40;88.94;98875.10;103590;1300;22517;-26
2022/04/10 00:43:20;;;;;;;3.30;1.90;;;;;;;-0.42;89.00;98878.14;103553;1300;24372;-29
2022/04/10 00:45:45;;;;;;;3.30;1.80;;;;;;;-0.41;89.69;98877.46;103548;1300;22671;-25
2022/04/10 00:48:12;;;;;;;2.70;2.10;;;;;;;-0.46;89.77;98880.05;103594;1300;22621;-28
2022/04/10 00:51:39;;;;;;;6.80;2.00;;;;;;;-0.46;90.20;98871.77;103608;1300;24403;-25
2022/04/10 00:53:24;;;;;;;5.50;1.60;;;;;;;-0.56;90.52;98879.14;103562;1300;24202;-29
2022/04/10 00:55:50;;;;;;;3.20;1.40;;;;;;;-0.57;90.91;98882.08;103555;1300;23821;-28
2022/04/10 00:58:15;;;;;;;7.20;2.10;;;;;;;-0.54;90.99;98876.69;103302;1302;25049;-26
2022/04/10 01:00:41;;;;;;;3.70;2.10;;;;;;;-0.59;91.27;98883.60;103550;1300;22499;-26
2022/04/10 01:03:07;;;;;;;8.30;1.80;;;;;;;-0.54;91.20;98882.10;103561;1300;24212;-25
2022/04/10 01:05:32;;;;;;;2.30;1.50;;;;;;;-0.68;91.39;98881.46;103459;1301;22495;-28
2022/04/10 01:07:58;;;;;;;2.50;1.60;;;;;;;-0.82;91.95;98882.20;103562;1300;23609;-30
2022/04/10 01:10:24;;;;;;;7.60;1.90;;;;;;;-0.90;92.26;98880.48;103551;1300;24308;-26
2022/04/10 01:12:50;;;;;;;3.40;1.60;;;;;;;-0.94;92.48;98882.20;103584;1300;24192;-29
2022/04/10 01:15:16;;;;;;;2.60;1.50;;;;;;;-0.98;92.31;98883.79;103571;1300;22562;-29
2022/04/10 01:17:43;;;;;;;7.70;1.50;;;;;;;-1.01;92.18;98883.91;103534;1300;24308;-28
2022/04/10 01:20:10;;;;;;;3.50;1.80;;;;;;;-1.02;92.47;98881.34;103565;1300;24248;-27
2022/04/10 01:22:36;;;;;;;5.10;3.40;;;;;;;-1.04;92.64;98889.43;103510;1300;24358;-25
2022/04/10 01:25:04;;;;;;;5.80;2.20;;;;;;;-1.08;92.97;98889.61;103381;1300;24051;-26
2022/04/10 01:27:29;;;;;;;8.60;2.70;;;;;;;-1.12;93.05;98887.52;103528;1300;24211;-29
2022/04/10 01:29:55;;;;;;;8.30;2.60;;;;;;;-1.09;93.07;98892.14;103475;1300;22499;-26
2022/04/10 01:32:21;;;;;;;3.80;2.10;;;;;;;-1.06;93.02;98896.08;103502;1300;25263;-29
2022/04/10 01:34:47;;;;;;;8.10;3.40;;;;;;;-1.15;93.34;98898.11;103571;1300;22640;-30
2022/04/10 01:37:13;;;;;;;2.90;1.80;;;;;;;-1.21;93.43;98900.61;103417;1300;24237;-27
2022/04/10 01:39:39;;;;;;;5.60;1.80;;;;;;;-1.23;93.54;98902.02;103574;1300;24359;-29
2022/04/10 01:42:06;;;;;;;2.80;1.90;;;;;;;-1.31;93.42;98905.35;103543;1300;22513;-26
2022/04/10 01:44:39;;;;;;;12.60;3.60;;;;;;;-1.36;93.57;98908.60;103615;1300;24264;-28
2022/04/10 01:47:05;;;;;;;3.50;2.50;;;;;;;-1.42;94.03;98911.36;103547;1302;24296;-26
2022/04/10 01:49:32;;;;;;;5.00;2.40;;;;;;;-1.46;94.92;98915.58;103492;1300;23632;-26
2022/04/10 01:51:57;;;;;;;3.20;1.60;;;;;;;-1.51;95.32;98918.48;103450;1302;24307;-29
2022/04/10 01:54:23;;;;;;;10.40;1.90;;;;;;;-1.38;94.88;98918.41;103561;1300;22510;-29
2022/04/10 01:56:49;;;;;;;7.60;2.60;;;;;;;-1.35;94.75;98919.95;103506;1300;24291;-25
2022/04/10 01:59:15;;;;;;;7.10;2.30;;;;;;;-1.24;94.88;98920.54;103592;1300;23638;-30
2022/04/10 02:01:42;;;;;;;4.60;2.60;;;;;;;-1.32;95.48;98918.27;103601;1300;24238;-25
2022/04/10 02:04:07;;;;;;;3.90;2.20;;;;;;;-1.37;96.76;98921.34;103607;1300;24256;-29
2022/04/10 02:06:34;;;;;;;1.90;0.90;;;;;;;-1.35;97.93;98920.64;103481;1300;24340;-28
2022/04/10 02:09:00;;;;;;;5.10;1.40;;;;;;;-1.27;98.91;98917.63;103514;1300;25074;-25
2022/04/10 02:11:26;;;;;;;4.30;2.20;;;;;;;-1.22;99.43;98923.10;103497;1300;24219;-29
2022/04/10 02:13:51;;;;;;;8.20;5.00;;;;;;;-1.05;99.15;98924.46;103558;1300;23904;-29
2022/04/10 02:16:18;;;;;;;8.30;3.80;;;;;;;-1.02;98.78;98923.67;103563;1300;22502;-26
2022/04/10 02:18:46;;;;;;;3.60;0.80;;;;;;;-0.87;98.10;98926.75;103535;1301;24217;-29
2022/04/10 02:21:12;;;;;;;2.00;1.80;;;;;;;-0.78;97.64;98930.36;103571;1300;24031;-26
2022/04/10 02:23:37;;;;;;;0.90;0.50;;;;;;;-0.65;97.19;98928.45;103569;1300;24217;-29
2022/04/10 02:26:03;;;;;;;0.10;0.10;;;;;;;-0.75;96.73;98937.36;103588;1300;24217;-29
2022/04/10 02:28:29;;;;;;;25.90;4.80;;;;;;;-0.80;96.90;98936.05;103613;1300;24279;-27
2022/04/10 02:30:55;;;;;;;4.20;2.20;;;;;;;-0.75;96.87;98941.02;103563;1300;24217;-28
2022/04/10 02:33:21;;;;;;;6.00;2.00;;;;;;;-0.68;96.48;98940.86;103568;1300;23602;-28
2022/04/10 02:35:47;;;;;;;2.80;1.60;;;;;;;-0.84;96.88;98940.23;103512;1300;24264;-26
2022/04/10 02:38:13;;;;;;;2.20;1.60;;;;;;;-0.84;97.44;98940.05;103534;1300;24218;-30
2022/04/10 02:40:38;;;;;;;1.00;0.50;;;;;;;-0.66;97.23;98934.42;103540;1300;24213;-29
2022/04/10 02:43:05;;;;;;;4.70;2.40;;;;;;;-0.81;97.64;98937.86;103524;1300;23638;-29
2022/04/10 02:45:30;;;;;;;4.90;2.80;;;;;;;-0.57;97.77;98936.05;103534;1300;24222;-29
2022/04/10 02:47:56;;;;;;;1.30;0.90;;;;;;;-0.44;97.34;98942.11;103560;1300;24245;-29
2022/04/10 02:50:23;;;;;;;1.70;0.40;;;;;;;-0.32;96.46;98946.80;103448;1302;24459;-26
2022/04/10 02:52:50;;;;;;;4.70;0.80;;;;;;;-0.49;96.99;98948.33;103496;1300;24292;-26
2022/04/10 02:55:15;;;;;;;3.20;2.30;;;;;;;-0.37;96.83;98949.06;103590;1300;24218;-28
2022/04/10 02:57:41;;;;;;;3.90;2.10;;;;;;;-0.32;96.51;98952.67;103583;1300;24302;-28
2022/04/10 03:00:07;;;;;;;1.10;0.80;;;;;;;-0.39;96.74;98957.98;103476;1300;24249;-31
2022/04/10 03:02:33;;;;;;;11.90;1.90;;;;;;;-0.45;97.05;98960.35;103612;1300;24241;-26
2022/04/10 03:04:59;;;;;;;12.00;1.90;;;;;;;-0.52;97.52;98963.87;103543;1300;24427;-30
2022/04/10 03:07:25;;;;;;;3.70;2.60;;;;;;;-0.52;97.74;98969.52;103515;1300;22500;-30
2022/04/10 03:09:51;;;;;;;3.20;2.30;;;;;;;-0.63;97.60;98973.13;103546;1300;24213;-30
2022/04/10 03:12:16;;;;;;;4.40;2.70;;;;;;;-0.70;97.64;98981.36;103575;1300;24433;-25
2022/04/10 03:14:42;;;;;;;4.90;2.80;;;;;;;-0.73;97.68;98981.73;103514;1300;24449;-30
2022/04/10 03:17:08;;;;;;;3.60;2.10;;;;;;;-0.79;97.79;98989.85;103524;1300;24198;-27
2022/04/10 03:19:34;;;;;;;4.10;2.60;;;;;;;-0.75;97.60;98995.80;103579;1300;24230;-31
2022/04/10 03:21:59;;;;;;;3.50;2.30;;;;;;;-0.77;97.73;98996.21;103545;1300;24222;-28
2022/04/10 03:24:25;;;;;;;4.50;2.10;;;;;;;-0.97;97.02;99000.73;103517;1300;24404;-28
2022/04/10 03:26:51;;;;;;;2.80;1.60;;;;;;;-1.21;96.59;99007.86;103540;1300;24225;-26
2022/04/10 03:29:17;;;;;;;7.10;2.90;;;;;;;-1.35;96.67;99011.55;103522;1300;23807;-30
2022/04/10 03:31:43;;;;;;;5.70;2.70;;;;;;;-1.44;96.75;99016.20;103599;1300;23919;-29
2022/04/10 03:34:09;;;;;;;3.00;2.20;;;;;;;-1.50;96.77;99021.05;103515;1300;24227;-28
2022/04/10 03:36:35;;;;;;;5.20;3.10;;;;;;;-1.58;97.02;99027.40;103499;1299;24291;-30
2022/04/10 03:39:00;;;;;;;5.20;3.00;;;;;;;-1.62;97.50;99030.00;103511;1302;24225;-30
2022/04/10 03:41:26;;;;;;;6.60;2.30;;;;;;;-1.62;97.88;99032.61;103569;1300;24241;-27
2022/04/10 03:43:52;;;;;;;3.20;2.60;;;;;;;-1.63;98.06;99039.58;103569;1300;24238;-30
2022/04/10 03:46:18;;;;;;;6.20;3.40;;;;;;;-1.64;98.26;99039.83;103563;1300;22506;-28
2022/04/10 03:48:43;;;;;;;4.10;2.10;;;;;;;-1.64;98.28;99044.35;103563;1300;24302;-25
2022/04/10 03:51:09;;;;;;;5.70;2.80;;;;;;;-1.61;98.51;99049.44;103585;1300;24519;-28
2022/04/10 03:53:35;;;;;;;5.60;3.20;;;;;;;-1.59;98.70;99052.54;103581;1301;24988;-29
2022/04/10 03:56:01;;;;;;;4.10;3.50;;;;;;;-1.58;98.82;99053.95;103553;1300;24291;-28
2022/04/10 03:58:27;;;;;;;5.50;3.80;;;;;;;-1.52;98.93;99057.23;103585;1300;22509;-28
2022/04/10 04:00:53;;;;;;;6.30;3.50;;;;;;;-1.52;98.92;99061.83;103567;1300;23751;-30
2022/04/10 04:03:19;;;;;;;6.00;3.80;;;;;;;-1.37;98.90;99063.16;103399;1302;25094;-25
2022/04/10 04:05:44;;;;;;;4.00;2.90;;;;;;;-1.21;98.63;99064.45;103417;1302;24260;-29
2022/04/10 04:08:10;;;;;;;8.00;3.20;;;;;;;-1.32;99.23;99072.46;103568;1300;24215;-29
2022/04/10 04:10:36;;;;;;;4.00;2.70;;;;;;;-1.29;100.00;99070.93;103562;1300;23970;-28
2022/04/10 04:13:02;;;;;;;3.30;2.30;;;;;;;-1.13;100.00;99069.90;103190;1300;557866;-31
2022/04/10 04:15:28;;;;;;;3.40;2.70;;;;;;;-0.98;100.00;99071.80;103565;1300;22518;-26
2022/04/10 04:17:53;;;;;;;1.90;0.70;;;;;;;-0.89;100.00;99069.33;103465;1300;24219;-26
2022/04/10 04:20:20;;;;;;;4.90;2.30;;;;;;;-0.87;100.00;99069.64;103585;1300;24337;-26
2022/04/10 04:22:46;;;;;;;2.50;2.10;;;;;;;-0.57;99.96;99078.96;103532;1299;22512;-29
2022/04/10 04:25:11;;;;;;;1.90;1.50;;;;;;;-0.32;99.11;99082.97;103560;1300;24312;-25
2022/04/10 04:27:38;;;;;;;4.40;2.70;;;;;;;-0.35;98.54;99086.23;103567;1300;22515;-25
2022/04/10 04:30:05;;;;;;;2.90;1.80;;;;;;;-0.27;98.12;99092.61;103498;1300;24204;-27
2022/04/10 04:32:31;;;;;;;3.80;2.30;;;;;;;-0.17;97.92;99100.67;103578;1300;24393;-29
2022/04/10 04:34:56;;;;;;;3.40;2.40;;;;;;;-0.10;97.89;99103.69;103559;1300;24240;-28
2022/04/10 04:37:22;;;;;;;6.40;5.20;;;;;;;0.18;97.29;99107.56;103533;1300;24278;-28
2022/04/10 04:39:48;;;;;;;5.60;3.20;;;;;;;0.53;95.74;99109.70;103536;1300;24323;-29
2022/04/10 04:42:14;;;;;;;5.10;2.90;;;;;;;0.50;95.05;99114.73;103582;1300;24306;-29
2022/04/10 04:44:39;;;;;;;3.60;2.10;;;;;;;0.71;94.48;99116.55;103582;1300;24337;-27
2022/04/10 04:47:06;;;;;;;2.80;2.60;;;;;;;0.71;93.91;99122.83;103467;1300;24221;-25
2022/04/10 04:49:31;;;;;;;5.30;3.70;;;;;;;0.64;94.16;99125.77;103572;1300;24224;-26
2022/04/10 04:51:58;;;;;;;3.90;2.00;;;;;;;1.03;92.68;99125.90;103558;1300;24305;-25
2022/04/10 04:54:24;;;;;;;3.80;2.80;;;;;;;1.01;92.16;99130.17;103462;1300;24248;-26
2022/04/10 04:56:49;;;;;;;4.00;3.60;;;;;;;1.24;91.06;99128.28;103604;1300;24248;-26
2022/04/10 04:59:15;;;;;;;8.60;6.20;;;;;;;1.32;90.68;99129.55;103526;1300;24345;-26
2022/04/10 05:01:42;;;;;;;5.20;4.60;;;;;;;1.77;88.69;99131.25;103501;1300;24240;-26
2022/04/10 05:04:08;;;;;;;7.40;2.30;;;;;;;1.50;88.56;99139.14;103597;1300;22502;-27
2022/04/10 05:06:34;;;;;;;23.70;3.00;;;;;;;1.49;89.32;99140.67;103562;1300;24216;-29
2022/04/10 05:08:59;;;;;;;3.50;3.10;;;;;;;1.40;89.14;99149.29;103627;1300;24289;-26
2022/04/10 05:11:25;;;;;;;4.00;2.90;;;;;;;1.37;89.61;99151.66;103597;1300;24254;-29
2022/04/10 05:13:51;;;;;;;5.50;2.50;;;;;;;1.69;89.11;99154.26;103522;1300;24272;-29
2022/04/10 05:16:17;;;;;;;5.60;3.60;;;;;;;1.60;88.23;99158.27;103532;1300;24251;-27
2022/04/10 05:18:43;;;;;;;6.60;2.80;;;;;;;1.76;87.33;99165.03;103543;1300;24247;-25
2022/04/10 05:21:09;;;;;;;8.20;3.80;;;;;;;1.72;87.96;99166.36;103557;1300;24271;-26
2022/04/10 05:23:35;;;;;;;3.30;2.30;;;;;;;1.66;87.95;99168.36;103524;1300;23614;-26
2022/04/10 05:26:01;;;;;;;5.30;2.50;;;;;;;1.79;88.00;99165.15;103625;1300;24217;-29
2022/04/10 05:28:26;;;;;;;1.20;1.10;;;;;;;2.11;86.53;99167.50;103569;1300;24384;-29
2022/04/10 05:30:53;;;;;;;2.70;1.90;;;;;;;2.05;86.48;99170.55;103489;1300;22841;-29
2022/04/10 05:33:19;;;;;;;2.10;1.40;;;;;;;2.04;86.69;99171.49;103534;1300;24210;-30
2022/04/10 05:35:45;;;;;;;4.40;2.10;;;;;;;1.79;87.86;99173.77;103569;1300;22851;-26
2022/04/10 05:38:11;;;;;;;3.00;2.70;;;;;;;1.92;88.09;99173.62;103463;1300;24210;-27
2022/04/10 05:40:37;;;;;;;3.30;2.40;;;;;;;2.13;86.88;99175.81;103568;1300;24203;-30
2022/04/10 05:43:03;;;;;;;5.20;2.90;;;;;;;1.99;87.28;99178.08;103570;1299;22499;-30
2022/04/10 05:45:28;;;;;;;2.10;1.40;;;;;;;2.07;87.30;99173.08;103512;1300;24304;-29
2022/04/10 05:47:54;;;;;;;5.70;3.30;;;;;;;2.11;87.39;99176.34;103545;1300;24278;-27
2022/04/10 05:50:20;;;;;;;7.60;3.00;;;;;;;2.17;87.41;99175.98;103385;1300;24264;-28
2022/04/10 05:52:47;;;;;;;8.00;2.90;;;;;;;2.67;85.08;99173.17;103443;1300;24401;-31
2022/04/10 05:55:15;;;;;;;2.30;2.00;;;;;;;2.65;84.84;99178.30;103542;1300;24196;-26
2022/04/10 05:57:41;;;;;;;2.90;2.20;;;;;;;2.69;85.23;99175.21;103568;1300;23936;-26
2022/04/10 06:00:10;;;;;;;4.10;2.70;;;;;;;2.80;83.89;99176.48;103552;1300;24254;-29
2022/04/10 06:02:37;;;;;;;3.90;3.60;;;;;;;2.49;84.74;99180.09;103524;1300;22499;-27
2022/04/10 06:05:03;;;;;;;1.40;1.30;;;;;;;2.41;86.45;99180.38;103519;1300;22639;-25
2022/04/10 06:07:29;;;;;;;5.80;3.10;;;;;;;2.57;85.81;99178.79;103558;1300;24247;-26
2022/04/10 06:09:54;;;;;;;4.90;3.00;;;;;;;2.68;85.25;99172.36;103543;1300;24248;-29
2022/04/10 06:12:20;;;;;;;6.90;2.50;;;;;;;2.84;84.32;99172.40;103580;1300;22721;-25
2022/04/10 06:14:46;;;;;;;5.10;2.50;;;;;;;2.77;84.40;99168.32;103552;1300;24329;-25
2022/04/10 06:17:12;;;;;;;2.60;2.30;;;;;;;2.77;84.40;99172.54;103530;1300;24212;-23
2022/04/10 06:19:37;;;;;;;4.30;2.60;;;;;;;2.64;85.01;99177.70;103636;1299;24506;-29
2022/04/10 06:22:05;;;;;;;2.80;2.20;;;;;;;2.61;85.34;99176.27;103585;1300;24698;-30
2022/04/10 06:24:31;;;;;;;6.50;4.10;;;;;;;2.95;84.44;99178.00;103582;1300;24321;-29
2022/04/10 06:26:57;;;;;;;2.50;1.80;;;;;;;3.30;81.28;99176.58;103530;1300;22589;-29
2022/04/10 06:29:22;;;;;;;4.40;3.60;;;;;;;2.93;83.29;99179.87;103575;1300;22506;-29
2022/04/10 06:31:48;;;;;;;4.80;3.40;;;;;;;3.15;82.36;99178.95;103538;1300;23837;-26
2022/04/10 06:34:15;;;;;;;3.80;2.20;;;;;;;3.55;80.17;99176.00;103492;1300;23606;-25
2022/04/10 06:36:41;;;;;;;2.30;2.00;;;;;;;3.61;81.46;99165.31;103532;1300;24225;-28
2022/04/10 06:39:07;;;;;;;8.70;2.30;;;;;;;3.80;80.14;99166.02;103577;1302;24423;-24
2022/04/10 06:41:33;;;;;;;3.60;2.20;;;;;;;3.96;78.54;99175.15;103537;1300;24301;-26
2022/04/10 06:43:59;;;;;;;7.90;3.10;;;;;;;3.68;79.91;99169.70;103537;1300;24246;-27
2022/04/10 06:46:26;;;;;;;9.60;2.60;;;;;;;4.22;77.34;99173.44;103570;1300;24291;-28
2022/04/10 06:48:53;;;;;;;2.40;1.40;;;;;;;3.94;79.25;99169.89;103594;1300;24174;-28
2022/04/10 06:51:19;;;;;;;14.20;3.40;;;;;;;4.02;78.08;99167.06;103576;1300;24428;-24
2022/04/10 06:53:45;;;;;;;5.40;2.60;;;;;;;4.35;76.61;99173.55;103557;1300;24330;-30
2022/04/10 06:56:10;;;;;;;6.30;1.90;;;;;;;4.96;73.69;99172.87;103596;1300;24215;-28
2022/04/10 06:58:36;;;;;;;6.60;3.80;;;;;;;4.78;73.23;99171.20;103551;1300;24185;-25
2022/04/10 07:01:02;;;;;;;9.10;2.70;;;;;;;4.80;73.85;99173.63;103537;1300;23630;-28
2022/04/10 07:03:28;;;;;;;8.80;2.00;;;;;;;4.98;71.98;99171.94;103556;1300;24320;-26
2022/04/10 07:05:54;;;;;;;3.00;1.20;;;;;;;4.36;74.26;99174.82;103558;1300;24356;-30
2022/04/10 07:08:19;;;;;;;2.20;1.60;;;;;;;4.73;73.87;99179.61;103568;1300;24349;-31
2022/04/10 07:10:45;;;;;;;2.00;1.40;;;;;;;4.90;71.93;99182.02;103573;1300;24247;-30
2022/04/10 07:13:17;;;;;;;3.90;2.60;;;;;;;4.92;72.06;99180.49;103605;1300;24238;-30
2022/04/10 07:15:44;;;;;;;1.50;1.10;;;;;;;5.30;70.71;99182.65;103588;1302;24216;-28
2022/04/10 07:18:10;;;;;;;5.40;1.60;;;;;;;5.29;69.97;99178.62;103580;1300;24302;-28
2022/04/10 07:20:36;;;;;;;1.40;1.10;;;;;;;5.19;72.14;99181.54;103597;1300;24352;-27
2022/04/10 07:25:32;;;;;;;3.50;1.50;;;;;;;5.00;71.87;99177.73;103583;1300;24299;-25
2022/04/10 07:27:58;;;;;;;8.00;2.10;;;;;;;4.75;71.73;99182.59;103532;1302;24340;-28
2022/04/10 07:30:23;;;;;;;2.00;1.50;;;;;;;4.94;71.75;99187.80;103473;1300;24216;-27
2022/04/10 07:32:51;;;;;;;4.30;1.30;;;;;;;5.37;70.95;99180.73;103527;1302;24247;-25
2022/04/10 07:35:17;;;;;;;2.60;1.40;;;;;;;5.21;69.68;99176.98;103607;1302;24345;-25
2022/04/10 07:37:42;;;;;;;1.70;1.30;;;;;;;5.21;70.85;99181.50;103557;1300;24238;-28
2022/04/10 07:40:09;;;;;;;3.90;1.50;;;;;;;5.23;70.48;99175.42;103541;1300;22499;-25
2022/04/10 07:42:39;;;;;;;1.30;1.10;;;;;;;6.07;66.81;99181.77;103438;1302;24302;-28
2022/04/10 07:45:06;;;;;;;3.60;1.30;;;;;;;6.18;65.81;99181.15;103664;1300;24215;-29
2022/04/10 07:47:32;;;;;;;2.70;1.40;;;;;;;6.18;65.32;99188.89;103578;1300;23130;-29
2022/04/10 07:49:57;;;;;;;2.90;1.30;;;;;;;5.66;66.68;99185.75;103575;1300;24314;-25
2022/04/10 07:52:23;;;;;;;2.60;1.50;;;;;;;5.72;66.46;99189.16;103512;1300;23764;-28
2022/04/10 07:54:49;;;;;;;1.70;1.10;;;;;;;6.09;64.05;99192.88;103590;1300;24359;-29
2022/04/10 07:57:16;;;;;;;3.90;1.90;;;;;;;6.44;63.07;99191.38;103559;1300;24304;-28
2022/04/10 07:59:42;;;;;;;6.40;2.40;;;;;;;6.49;63.09;99197.98;103529;1302;24216;-25
2022/04/10 08:02:08;;;;;;;2.80;1.30;;;;;;;6.33;63.57;99197.96;103623;1302;23639;-28
2022/04/10 08:04:34;;;;;;;3.40;1.20;;;;;;;6.23;64.79;99191.32;103606;1300;24247;-29
2022/04/10 08:07:00;;;;;;;4.30;1.30;;;;;;;5.84;65.72;99194.40;103541;1300;24216;-25
2022/04/10 08:09:25;;;;;;;7.00;1.80;;;;;;;6.30;65.90;99212.02;103544;1300;23343;-28
2022/04/10 08:11:51;;;;;;;6.50;2.30;;;;;;;6.20;65.58;99208.33;103545;1302;22503;-27
2022/04/10 08:14:17;;;;;;;3.90;1.70;;;;;;;5.67;65.89;99212.11;103538;1300;24347;-26
2022/04/10 08:16:43;;;;;;;2.50;1.40;;;;;;;5.30;66.52;99215.33;103534;1302;24280;-25
2022/04/10 08:19:09;;;;;;;3.00;1.30;;;;;;;5.39;67.27;99213.13;103567;1300;24324;-25
2022/04/10 08:21:34;;;;;;;1.90;1.60;;;;;;;5.18;68.40;99222.99;103582;1301;24233;-29
2022/04/10 08:24:01;;;;;;;6.60;2.10;;;;;;;5.81;67.73;99227.85;103589;1302;23611;-25
2022/04/10 08:26:27;;;;;;;4.20;2.10;;;;;;;6.23;67.16;99233.05;103550;1300;24236;-28
2022/04/10 08:28:53;;;;;;;7.80;2.00;;;;;;;6.54;65.47;99231.15;103517;1300;24285;-28
2022/04/10 08:31:18;;;;;;;2.50;1.50;;;;;;;6.61;63.78;99235.33;103538;1300;24228;-29
2022/04/10 08:33:44;;;;;;;4.70;2.50;;;;;;;6.36;64.30;99235.55;103540;1302;24286;-28
2022/04/10 08:36:10;;;;;;;5.50;3.40;;;;;;;6.68;64.18;99236.63;103566;1300;24984;-27
2022/04/10 08:38:35;;;;;;;2.60;2.30;;;;;;;7.18;61.21;99232.73;103538;1300;24196;-28
2022/04/10 08:41:01;;;;;;;3.30;2.20;;;;;;;7.04;61.86;99240.02;103565;1302;24203;-27
2022/04/10 08:43:28;;;;;;;6.20;2.10;;;;;;;6.87;61.95;99240.96;103541;1300;24195;-25
2022/04/10 08:45:55;;;;;;;14.80;1.70;;;;;;;6.62;62.88;99246.46;103598;1299;24212;-28
2022/04/10 08:48:24;;;;;;;5.50;1.60;;;;;;;6.42;63.65;99245.88;103632;1301;24225;-25
2022/04/10 08:50:51;;;;;;;4.50;1.80;;;;;;;6.38;63.11;99246.20;103531;1300;22949;-30
2022/04/10 08:53:16;;;;;;;11.00;2.50;;;;;;;6.12;64.28;99247.89;103516;1302;24217;-25
2022/04/10 08:55:43;;;;;;;4.60;1.90;;;;;;;6.31;63.86;99252.01;103547;1302;24247;-31
2022/04/10 08:58:08;;;;;;;2.20;1.60;;;;;;;6.02;65.53;99253.98;103526;1300;24241;-31
2022/04/10 09:00:35;;;;;;;1.70;1.00;;;;;;;5.63;65.38;99255.02;103560;1300;24262;-28
2022/04/10 09:03:01;;;;;;;3.50;1.90;;;;;;;5.81;62.82;99251.98;103483;1299;24356;-29
2022/04/10 09:05:27;;;;;;;5.40;1.50;;;;;;;6.27;61.27;99247.43;103544;1300;22738;-25
2022/04/10 09:08:13;;;;;;;3.10;1.80;;;;;;;5.95;62.56;99260.24;103517;1300;24238;-26
2022/04/10 09:10:46;;;;;;;2.60;1.70;;;;;;;5.13;66.50;99262.08;103552;1301;24222;-29
2022/04/10 09:13:12;;;;;;;2.10;1.40;;;;;;;4.70;69.68;99264.87;103541;1300;24212;-30
2022/04/10 09:15:38;;;;;;;9.00;1.00;;;;;;;5.00;70.03;99269.60;103550;1300;24289;-31
2022/04/10 09:18:04;;;;;;;6.70;0.90;;;;;;;5.68;64.59;99266.91;103448;1301;22702;-24
2022/04/10 09:20:30;;;;;;;1.70;0.90;;;;;;;5.14;65.78;99267.61;103413;1302;24163;-25
2022/04/10 09:23:07;;;;;;;3.00;1.30;;;;;;;5.20;64.86;99263.42;103588;1300;24238;-26
2022/04/10 09:25:41;;;;;;;2.30;0.80;;;;;;;5.36;65.01;99268.85;103469;1300;25120;-25
2022/04/10 09:28:07;;;;;;;1.30;1.00;;;;;;;5.33;63.71;99265.15;103540;1300;22689;-28
2022/04/10 09:30:34;;;;;;;3.40;1.20;;;;;;;5.63;63.83;99255.39;103512;1300;24214;-28
2022/04/10 09:33:00;;;;;;;4.90;0.90;;;;;;;6.17;63.81;99255.50;103541;1300;22511;-29
2022/04/10 09:35:27;;;;;;;2.10;0.60;;;;;;;6.40;61.05;99249.82;103501;1302;24245;-25
2022/04/10 09:37:54;;;;;;;4.30;0.90;;;;;;;6.43;60.33;99254.27;103532;1300;24218;-29
2022/04/10 09:40:24;;;;;;;4.50;0.90;;;;;;;6.35;61.08;99250.60;103609;1300;22502;-26
2022/04/10 09:43:00;;;;;;;3.60;0.80;;;;;;;6.39;61.53;99249.22;103510;1300;24994;-31
2022/04/10 09:45:27;;;;;;;0.50;0.50;;;;;;;6.32;61.21;99248.99;103535;1300;23634;-25
2022/04/10 09:47:53;;;;;;;2.10;0.90;;;;;;;6.51;59.81;99251.02;103589;1300;22868;-31
2022/04/10 09:50:18;;;;;;;1.60;0.40;;;;;;;6.45;61.10;99251.53;103517;1300;24292;-25
2022/04/10 09:52:44;;;;;;;1.80;0.50;;;;;;;6.41;59.39;99255.45;103536;1302;24238;-29
2022/04/10 09:55:32;;;;;;;4.90;0.60;;;;;;;6.70;60.42;99254.77;103487;1302;24432;-25
2022/04/10 09:57:59;;;;;;;2.00;0.60;;;;;;;6.54;60.12;99261.30;103590;1300;22500;-29
2022/04/10 10:00:25;;;;;;;0.80;0.60;;;;;;;6.63;58.12;99255.95;103617;1300;24359;-29
2022/04/10 10:02:51;;;;;;;0.70;0.50;;;;;;;7.27;54.31;99259.40;103507;1302;24247;-30
2022/04/10 10:05:17;;;;;;;0.90;0.70;;;;;;;7.31;53.38;99262.64;103594;1300;24302;-28
2022/04/10 10:07:42;;;;;;;5.30;0.80;;;;;;;7.24;54.66;99266.77;103506;1300;22727;-31
2022/04/10 10:10:08;;;;;;;1.90;0.70;;;;;;;7.16;56.56;99262.00;103497;1302;22515;-29
2022/04/10 10:12:34;;;;;;;0.60;0.60;;;;;;;7.16;55.18;99263.60;103265;1302;22522;-26
2022/04/10 10:15:00;;;;;;;3.00;0.40;;;;;;;7.58;53.61;99265.09;103580;1301;24260;-25
2022/04/10 10:17:25;;;;;;;1.20;0.50;;;;;;;6.91;55.59;99262.31;103544;1300;24237;-27
2022/04/10 10:19:51;;;;;;;3.10;1.10;;;;;;;6.22;58.17;99262.59;103480;1300;24282;-26
2022/04/10 10:22:17;;;;;;;0.60;0.40;;;;;;;6.16;57.79;99259.09;103541;1301;24300;-25
2022/04/10 10:24:50;;;;;;;2.10;1.10;;;;;;;5.85;60.44;99270.70;103558;1300;22506;-28
2022/04/10 10:27:27;;;;;;;1.40;0.80;;;;;;;5.89;61.11;99272.39;103613;1300;25422;-25
2022/04/10 10:29:59;;;;;;;6.10;1.00;;;;;;;6.09;61.36;99271.94;103499;1302;23033;-28
2022/04/10 10:32:32;;;;;;;1.90;0.90;;;;;;;6.15;60.71;99267.45;103599;1300;25544;-25
2022/04/10 10:34:58;;;;;;;6.30;2.30;;;;;;;6.51;59.83;99270.13;103595;1302;26154;-28
2022/04/10 10:37:28;;;;;;;25.00;5.90;;;;;;;7.04;58.11;99268.89;103544;1302;22719;-29
2022/04/10 10:39:54;;;;;;;1.50;0.50;;;;;;;6.99;57.62;99263.89;103606;1300;23316;-29
2022/04/10 10:42:20;;;;;;;3.60;1.10;;;;;;;6.95;57.53;99265.43;103598;1300;24366;-25
2022/04/10 10:44:48;;;;;;;3.40;0.40;;;;;;;7.18;57.09;99264.71;103477;1301;24320;-25
2022/04/10 10:47:16;;;;;;;2.20;0.50;;;;;;;7.17;56.26;99263.63;103573;1302;24216;-26
2022/04/10 10:49:45;;;;;;;8.30;2.10;;;;;;;7.32;53.90;99270.29;103599;1300;24136;-31
2022/04/10 10:52:11;;;;;;;19.40;7.30;;;;;;;7.67;54.79;99261.14;103661;1300;23628;-31
2022/04/10 10:54:44;;;;;;;1.70;1.50;;;;;;;8.21;53.21;99256.17;103666;1300;24248;-26
2022/04/10 10:57:16;;;;;;;5.00;3.40;;;;;;;8.26;51.27;99260.34;103635;1302;24213;-29
2022/04/10 10:59:43;;;;;;;16.10;7.50;;;;;;;7.79;52.22;99260.39;103627;1300;25935;-25
2022/04/10 11:02:11;;;;;;;142.80;38.90;;;;;;;7.96;53.04;99267.91;103602;1300;24214;-29
2022/04/10 11:04:42;;;;;;;122.10;34.70;;;;;;;8.04;51.51;99265.81;103587;1300;25226;-25
2022/04/10 11:07:17;;;;;;;60.40;21.20;;;;;;;7.24;54.09;99269.76;103624;1300;24214;-29
2022/04/10 11:09:49;;;;;;;36.80;18.50;;;;;;;7.65;55.24;99266.02;103561;1302;22781;-25
2022/04/10 11:12:21;;;;;;;18.10;9.40;;;;;;;7.90;54.65;99259.85;103704;1300;24011;-25
2022/04/10 11:14:51;;;;;;;10.00;3.10;;;;;;;8.02;53.18;99258.98;103585;1301;25038;-25
2022/04/10 11:17:22;;;;;;;5.50;0.60;;;;;;;8.22;50.66;99257.30;103524;1300;23452;-24
2022/04/10 11:19:54;;;;;;;3.40;1.90;;;;;;;8.78;48.08;99249.52;103536;1302;24983;-26
2022/04/10 11:22:25;;;;;;;4.20;0.90;;;;;;;9.19;46.66;99252.84;103534;1300;22521;-28
2022/04/10 11:24:57;;;;;;;3.60;1.20;;;;;;;8.95;45.57;99259.77;103479;1300;26189;-31
2022/04/10 11:27:33;;;;;;;1.40;0.90;;;;;;;8.99;46.40;99250.75;103558;1300;23600;-25
2022/04/10 11:30:03;;;;;;;4.90;1.00;;;;;;;9.04;46.75;99250.48;103576;1300;22502;-24